Terminal Aerodrome Forecast
Issued by NWS Mt. Holly, NJ

Home | Current Version | Previous Version | Text Only | Print | Product List | Glossary On
Versions: 1 2 3 4 5 6 7 8 9 10 11 12 13 14 15 16
000
FTUS41 KPHI 042104 AAA
TAFILG
TAF AMD
KILG 042104Z 0421/0518 28010G18KT P6SM SCT070
     FM050000 28010KT P6SM SCT070
     FM050200 26006KT P6SM VCSH SCT040 BKN070
     FM050600 33004KT P6SM SKC
     FM051400 29012G22KT P6SM FEW050=

USA.gov is the U.S. government's official web portal to all federal, state and local government web resources and services.